Terminal Aerodrome Forecast
Issued by NWS

Home | Current Version | Previous Version | Text Only | Print | Product List | Glossary On
Versions: 1 2 3 4 5 6 7 8 9 10 11 12 13 14 15 16 17 18 19 20 21 22 23 24 25 26 27 28 29 30 31 32 33 34 35 36 37 38
000
FTUS44 KHGX 110520
TAFUTS
TAF
KUTS 110520Z 1106/1206 VRB03KT P6SM SCT250
      TEMPO 1111/1113 00000KT 5SM BR FEW250
     FM111500 20007KT P6SM FEW030
     FM112100 17008KT P6SM SCT050 SCT250
     FM120100 VRB03KT P6SM SCT250=

USA.gov is the U.S. government's official web portal to all federal, state and local government web resources and services.